Time;durP1;ratioP1;P1;durP2;ratioP2;P2;SDS_P1;SDS_P2;PMS_P1;PMS_P2;Temp;Humidity;BMP_temperature;BMP_pressure;BME280_temperature;BME280_humidity;BME280_pressure;Samples;Min_cycle;Max_cycle;Signal;HPM_P1;HPM_P2
2021/06/28 00:00:20;;;;;;;8.43;5.42;;;;;;;17.99;90.88;99076.13;1638460;86;21035;-65
2021/06/28 00:02:46;;;;;;;5.03;4.42;;;;;;;17.95;91.05;99070.78;1691162;83;21085;-65
2021/06/28 00:05:16;;;;;;;5.42;4.42;;;;;;;17.90;91.25;99071.13;1687540;84;21113;-65
2021/06/28 00:07:45;;;;;;;4.28;3.87;;;;;;;17.85;91.53;99059.64;1685806;84;21112;-65
2021/06/28 00:10:16;;;;;;;5.65;4.87;;;;;;;17.82;91.80;99065.14;1689786;83;21555;-65
2021/06/28 00:12:43;;;;;;;5.15;4.75;;;;;;;17.77;92.06;99064.67;1685220;84;21013;-65
2021/06/28 00:15:13;;;;;;;6.08;4.72;;;;;;;17.76;92.27;99057.74;1688572;83;21519;-65
2021/06/28 00:17:40;;;;;;;5.85;4.03;;;;;;;17.74;92.46;99055.70;1688419;84;21814;-65
2021/06/28 00:20:08;;;;;;;11.08;5.03;;;;;;;17.73;92.55;99057.13;1686291;84;21136;-65
2021/06/28 00:22:35;;;;;;;7.90;5.35;;;;;;;17.71;92.62;99059.88;1634056;86;21097;-65
2021/06/28 00:25:08;;;;;;;6.00;4.92;;;;;;;17.69;92.80;99059.64;1690132;83;21037;-65
2021/06/28 00:27:32;;;;;;;5.87;4.72;;;;;;;17.67;92.95;99059.75;1686562;83;21088;-65
2021/06/28 00:29:59;;;;;;;5.05;4.53;;;;;;;17.64;92.94;99058.66;1688792;83;21149;-65
2021/06/28 00:32:25;;;;;;;9.70;4.78;;;;;;;17.62;92.99;99059.70;1685108;83;21455;-65
2021/06/28 00:34:52;;;;;;;6.50;5.10;;;;;;;17.61;93.04;99058.03;1690124;84;21030;-65
2021/06/28 00:37:19;;;;;;;5.45;4.95;;;;;;;17.58;93.12;99059.12;1679845;84;21097;-65
2021/06/28 00:39:45;;;;;;;5.25;4.40;;;;;;;17.58;93.17;99062.23;1678314;85;21462;-65
2021/06/28 00:42:12;;;;;;;6.05;4.45;;;;;;;17.56;93.22;99064.98;1680900;83;21155;-65
2021/06/28 00:44:38;;;;;;;6.22;4.70;;;;;;;17.53;93.29;99066.52;1680573;84;20969;-65
2021/06/28 00:47:05;;;;;;;7.92;4.95;;;;;;;17.51;93.32;99073.21;1692542;83;20958;-65
2021/06/28 00:49:31;;;;;;;5.37;4.47;;;;;;;17.48;93.46;99066.86;1687059;83;20957;-65
2021/06/28 00:51:58;;;;;;;8.55;4.75;;;;;;;17.48;93.56;99064.23;1684353;84;20958;-65
2021/06/28 00:54:25;;;;;;;7.87;5.20;;;;;;;17.49;93.64;99063.77;1616931;86;21126;-66
2021/06/28 00:56:52;;;;;;;7.75;5.40;;;;;;;17.49;93.56;99063.28;1684882;84;21084;-66
2021/06/28 00:59:19;;;;;;;7.37;5.15;;;;;;;17.47;93.57;99061.72;1684360;83;21136;-64
2021/06/28 01:01:46;;;;;;;5.45;4.62;;;;;;;17.46;93.54;99073.19;1639149;86;21450;-64
2021/06/28 01:04:12;;;;;;;5.35;4.40;;;;;;;17.45;93.52;99063.63;1687988;84;21061;-65
2021/06/28 01:06:39;;;;;;;6.15;4.90;;;;;;;17.44;93.45;99064.58;1639309;86;21142;-64
2021/06/28 01:09:05;;;;;;;5.15;4.65;;;;;;;17.44;93.35;99064.58;1685456;83;20941;-64
2021/06/28 01:11:31;;;;;;;5.10;4.47;;;;;;;17.41;93.44;99076.16;1684588;84;21144;-64
2021/06/28 01:13:59;;;;;;;13.68;5.00;;;;;;;17.38;93.41;99071.16;1686019;84;20938;-64
2021/06/28 01:16:25;;;;;;;5.47;4.80;;;;;;;17.36;93.50;99073.54;1653115;86;21026;-65
2021/06/28 01:18:53;;;;;;;7.12;4.90;;;;;;;17.35;93.67;99075.33;1694311;83;21960;-65
2021/06/28 01:21:19;;;;;;;8.08;4.92;;;;;;;17.35;93.72;99073.18;1681239;84;21191;-65
2021/06/28 01:23:46;;;;;;;8.68;5.40;;;;;;;17.32;93.82;99078.19;1636575;86;21179;-65
2021/06/28 01:26:13;;;;;;;11.00;5.92;;;;;;;17.30;93.94;99080.09;1616699;86;21545;-65
2021/06/28 01:28:39;;;;;;;5.17;4.75;;;;;;;17.30;94.15;99079.25;1646236;86;21109;-65
2021/06/28 01:31:09;;;;;;;5.37;4.72;;;;;;;17.30;94.26;99080.56;1684962;83;21491;-65
2021/06/28 01:33:36;;;;;;;8.98;4.40;;;;;;;17.29;94.42;99087.61;1682266;84;21002;-65
2021/06/28 01:36:04;;;;;;;5.53;5.03;;;;;;;17.29;94.62;99092.03;1633403;86;21298;-65
2021/06/28 01:38:31;;;;;;;6.35;4.87;;;;;;;17.29;94.73;99086.30;1639180;86;21129;-65
2021/06/28 01:40:57;;;;;;;8.25;4.95;;;;;;;17.30;94.79;99091.92;1687134;83;20934;-65
2021/06/28 01:43:24;;;;;;;6.40;4.83;;;;;;;17.32;94.72;99087.86;1684255;84;21766;-65
2021/06/28 01:45:52;;;;;;;9.28;5.28;;;;;;;17.31;94.67;99088.81;1637427;86;21065;-65
2021/06/28 01:48:18;;;;;;;5.87;5.35;;;;;;;17.30;94.64;99087.14;1683865;84;21005;-65
2021/06/28 01:50:45;;;;;;;8.28;5.17;;;;;;;17.28;94.51;99084.63;1686323;83;20989;-65
2021/06/28 01:53:11;;;;;;;5.58;4.65;;;;;;;17.27;94.49;99093.94;1682709;84;21186;-65
2021/06/28 01:55:38;;;;;;;5.22;4.72;;;;;;;17.25;94.63;99086.63;1682626;83;21113;-65
2021/06/28 01:58:07;;;;;;;5.67;4.50;;;;;;;17.24;94.84;99089.73;1685088;83;21070;-65
2021/06/28 02:00:43;;;;;;;9.33;5.72;;;;;;;17.23;94.95;99094.16;1686540;83;21025;-65
2021/06/28 02:03:13;;;;;;;8.85;5.08;;;;;;;17.23;95.01;99092.84;1687637;83;20966;-65
2021/06/28 02:05:51;;;;;;;9.10;4.92;;;;;;;17.24;95.07;99100.25;1648305;86;20963;-65
2021/06/28 02:08:20;;;;;;;5.50;4.97;;;;;;;17.23;95.22;99095.47;1681941;84;21153;-65
2021/06/28 02:10:49;;;;;;;5.55;4.97;;;;;;;17.26;95.27;99094.41;1685650;84;20993;-65
2021/06/28 02:13:20;;;;;;;7.83;5.42;;;;;;;17.31;95.30;99097.53;1684851;83;21222;-66
2021/06/28 02:15:48;;;;;;;6.60;5.10;;;;;;;17.39;95.14;99096.94;1690889;83;21125;-66
2021/06/28 02:18:14;;;;;;;9.63;4.97;;;;;;;17.50;94.92;99100.45;1683908;84;21198;-64
2021/06/28 02:20:41;;;;;;;6.62;4.92;;;;;;;17.64;94.50;99103.81;1681052;83;21138;-66
2021/06/28 02:23:28;;;;;;;8.05;5.25;;;;;;;17.81;93.91;99105.55;1682041;83;20982;-65
2021/06/28 02:26:02;;;;;;;5.75;5.08;;;;;;;18.00;93.22;99106.28;1685814;84;21077;-65
2021/06/28 02:28:35;;;;;;;5.97;5.00;;;;;;;18.25;92.15;99107.36;1679701;82;21132;-65
2021/06/28 02:31:03;;;;;;;7.60;5.42;;;;;;;18.53;90.82;99103.87;1689529;83;21096;-65
2021/06/28 02:33:29;;;;;;;6.47;5.12;;;;;;;18.85;89.45;99107.88;1689191;83;21171;-65
2021/06/28 02:35:56;;;;;;;5.35;4.78;;;;;;;19.18;87.87;99113.53;1691760;83;21581;-65
2021/06/28 02:38:23;;;;;;;15.58;5.53;;;;;;;19.51;86.37;99109.91;1686455;84;21064;-65
2021/06/28 02:40:51;;;;;;;6.37;4.72;;;;;;;19.83;84.35;99106.70;1686097;83;21017;-64
2021/06/28 02:43:18;;;;;;;5.33;4.67;;;;;;;20.12;82.10;99100.73;1685432;84;21149;-65
2021/06/28 02:45:46;;;;;;;6.83;4.72;;;;;;;20.39;79.71;99110.71;1685619;82;21096;-65
2021/06/28 02:48:15;;;;;;;6.30;4.78;;;;;;;20.57;77.66;99110.45;1687814;83;21501;-65
2021/06/28 02:50:42;;;;;;;7.83;5.12;;;;;;;20.73;77.01;99112.08;1687068;84;21092;-65
2021/06/28 02:53:09;;;;;;;5.62;5.03;;;;;;;20.97;75.86;99109.89;1655454;86;21518;-65
2021/06/28 02:55:35;;;;;;;7.17;4.50;;;;;;;21.26;74.27;99115.69;1641443;86;21149;-65
2021/06/28 02:58:02;;;;;;;6.15;4.55;;;;;;;21.51;73.69;99115.60;1682524;84;21132;-65
2021/06/28 03:00:29;;;;;;;4.40;4.00;;;;;;;21.80;72.05;99117.69;1683953;84;21001;-65
2021/06/28 03:02:58;;;;;;;4.95;4.50;;;;;;;22.07;70.48;99120.09;1685502;84;21423;-65
2021/06/28 03:05:25;;;;;;;7.85;4.75;;;;;;;22.32;69.62;99118.95;1632973;86;21057;-65
2021/06/28 03:07:53;;;;;;;6.53;4.22;;;;;;;22.61;69.03;99119.27;1633630;86;21233;-65
2021/06/28 03:10:20;;;;;;;5.22;4.40;;;;;;;22.97;67.67;99124.20;1643165;86;21160;-65
2021/06/28 03:12:46;;;;;;;5.85;4.30;;;;;;;23.35;66.24;99125.70;1686601;84;20989;-65
2021/06/28 03:15:16;;;;;;;5.25;4.75;;;;;;;23.64;64.84;99112.17;1685451;84;21018;-65
2021/06/28 03:17:43;;;;;;;4.87;4.30;;;;;;;24.00;63.98;99114.23;1689410;84;21597;-66
2021/06/28 03:20:12;;;;;;;6.58;4.70;;;;;;;24.46;62.54;99112.16;1633744;86;21104;-66
2021/06/28 03:22:39;;;;;;;4.58;4.08;;;;;;;24.82;60.53;99118.08;1647520;86;22536;-66
2021/06/28 03:25:07;;;;;;;5.95;4.83;;;;;;;25.02;59.71;99114.16;1681517;84;21187;-66
2021/06/28 03:27:34;;;;;;;4.80;4.40;;;;;;;25.27;59.03;99110.54;1689507;83;21076;-66
2021/06/28 03:30:00;;;;;;;6.25;4.37;;;;;;;25.64;58.06;99111.39;1686974;84;20966;-66
2021/06/28 03:32:27;;;;;;;6.42;4.17;;;;;;;25.96;56.77;99113.18;1634896;85;21018;-65
2021/06/28 03:34:53;;;;;;;6.20;4.62;;;;;;;26.15;55.96;99115.13;1685347;83;21961;-65
2021/06/28 03:37:20;;;;;;;6.15;4.62;;;;;;;26.25;54.79;99115.74;1685381;83;20983;-65
2021/06/28 03:39:46;;;;;;;21.77;5.33;;;;;;;26.32;54.80;99112.27;1683326;83;21002;-65
2021/06/28 03:42:13;;;;;;;5.90;4.53;;;;;;;26.49;54.04;99115.69;1686362;83;20989;-66
2021/06/28 03:44:40;;;;;;;7.80;4.47;;;;;;;26.55;53.57;99112.84;1682346;83;20962;-66
2021/06/28 03:47:07;;;;;;;4.75;4.35;;;;;;;26.57;53.71;99110.83;1682544;84;21421;-66
2021/06/28 03:49:33;;;;;;;4.95;4.45;;;;;;;26.68;52.75;99105.92;1689346;82;21136;-66
2021/06/28 03:52:00;;;;;;;4.75;4.45;;;;;;;26.87;52.56;99117.98;1680771;83;21060;-66
2021/06/28 03:54:26;;;;;;;7.22;4.85;;;;;;;26.99;51.84;99117.92;1691723;83;21504;-66
2021/06/28 03:56:53;;;;;;;5.67;4.58;;;;;;;27.06;51.96;99124.73;1695815;83;21089;-66
2021/06/28 03:59:20;;;;;;;5.28;4.47;;;;;;;27.20;51.22;99123.13;1687797;83;21946;-67
2021/06/28 04:01:46;;;;;;;6.12;4.80;;;;;;;27.38;51.00;99128.99;1689201;84;21049;-66
2021/06/28 04:04:13;;;;;;;5.87;4.40;;;;;;;27.53;49.90;99129.89;1689735;83;21718;-66
2021/06/28 04:06:39;;;;;;;6.12;4.62;;;;;;;27.63;49.78;99126.98;1686537;82;21151;-66
2021/06/28 04:09:08;;;;;;;6.58;4.62;;;;;;;27.74;49.40;99119.88;1686169;83;21090;-66
2021/06/28 04:11:36;;;;;;;4.90;4.50;;;;;;;27.84;48.49;99130.30;1686911;84;21214;-66
2021/06/28 04:14:02;;;;;;;6.10;4.47;;;;;;;27.84;48.15;99128.45;1685200;84;21065;-66
2021/06/28 04:16:29;;;;;;;5.58;5.08;;;;;;;27.70;47.42;99123.92;1683507;84;20938;-65
2021/06/28 04:18:56;;;;;;;9.43;5.37;;;;;;;27.54;47.82;99127.55;1686677;83;21077;-65
2021/06/28 04:21:23;;;;;;;6.55;4.53;;;;;;;27.43;47.61;99131.96;1686821;84;21176;-65
2021/06/28 04:23:50;;;;;;;5.83;4.87;;;;;;;27.38;48.18;99120.98;1641695;85;21132;-65
2021/06/28 04:26:16;;;;;;;7.05;4.80;;;;;;;27.51;47.98;99124.40;1686238;83;21053;-65
2021/06/28 04:28:43;;;;;;;5.25;4.58;;;;;;;27.59;47.80;99123.00;1687160;84;21533;-65
2021/06/28 04:31:09;;;;;;;5.53;5.00;;;;;;;27.68;47.54;99121.94;1632807;86;20978;-66
2021/06/28 04:33:36;;;;;;;8.63;5.72;;;;;;;27.69;47.71;99123.09;1686260;84;21076;-66
2021/06/28 04:36:04;;;;;;;6.37;5.28;;;;;;;27.73;47.84;99123.06;1684917;84;21897;-65
2021/06/28 04:38:30;;;;;;;5.65;4.87;;;;;;;27.89;47.29;99124.73;1686447;84;21410;-66
2021/06/28 04:40:57;;;;;;;7.47;4.80;;;;;;;28.00;46.56;99124.78;1685237;83;20962;-64
2021/06/28 04:43:23;;;;;;;4.90;4.50;;;;;;;28.06;46.92;99126.73;1633384;86;21010;-64
2021/06/28 04:45:50;;;;;;;5.55;5.03;;;;;;;28.12;46.88;99120.66;1652040;85;21442;-66
2021/06/28 04:48:16;;;;;;;8.30;4.97;;;;;;;28.17;46.77;99120.11;1651308;85;21213;-66
2021/06/28 04:50:43;;;;;;;6.50;4.75;;;;;;;28.23;47.06;99114.86;1669527;85;21055;-65
2021/06/28 04:53:09;;;;;;;5.53;5.03;;;;;;;28.39;46.36;99109.81;1645747;85;21034;-65
2021/06/28 04:55:37;;;;;;;5.62;5.22;;;;;;;28.49;46.04;99117.06;1643049;85;21564;-65
2021/06/28 04:58:04;;;;;;;9.15;5.15;;;;;;;28.54;46.02;99116.00;1663855;85;21057;-65
2021/06/28 05:00:31;;;;;;;7.17;4.87;;;;;;;28.59;45.87;99120.27;1641155;86;21136;-66
2021/06/28 05:02:57;;;;;;;6.10;4.97;;;;;;;28.66;45.78;99117.67;1639645;86;20975;-66
2021/06/28 05:05:23;;;;;;;7.55;5.53;;;;;;;28.74;45.94;99118.41;1685841;83;21002;-66
2021/06/28 05:07:50;;;;;;;5.97;5.37;;;;;;;28.84;44.91;99110.09;1685327;84;21383;-65
2021/06/28 05:10:17;;;;;;;6.00;4.97;;;;;;;28.86;44.74;99121.95;1684759;83;21422;-66
2021/06/28 05:12:43;;;;;;;7.53;5.08;;;;;;;28.87;44.29;99119.09;1642892;86;21123;-65
2021/06/28 05:15:12;;;;;;;4.60;4.12;;;;;;;28.82;44.92;99120.16;1684863;84;20986;-65
2021/06/28 05:17:38;;;;;;;6.50;4.55;;;;;;;28.82;44.43;99116.65;1653150;86;20994;-66
2021/06/28 05:20:07;;;;;;;5.37;4.65;;;;;;;28.85;43.86;99124.30;1685111;84;20990;-65
2021/06/28 05:22:33;;;;;;;22.82;5.50;;;;;;;28.82;44.18;99117.98;1687669;83;21061;-65
2021/06/28 05:25:00;;;;;;;13.18;7.62;;;;;;;28.81;44.02;99118.49;1657872;86;21130;-66
2021/06/28 05:27:26;;;;;;;4.67;4.28;;;;;;;28.87;43.83;99119.59;1680469;84;21013;-66
2021/06/28 05:29:56;;;;;;;7.15;4.60;;;;;;;28.94;43.63;99117.33;1682598;83;20961;-66
2021/06/28 05:32:24;;;;;;;6.28;5.50;;;;;;;28.85;43.16;99115.77;1682721;84;21131;-65
2021/06/28 05:34:51;;;;;;;5.55;5.10;;;;;;;28.82;43.46;99112.13;1683010;84;20994;-65
2021/06/28 05:37:19;;;;;;;6.25;4.70;;;;;;;28.78;43.54;99111.64;1682860;83;21983;-65
2021/06/28 05:39:46;;;;;;;6.42;5.35;;;;;;;28.72;44.20;99127.13;1684602;84;20990;-65
2021/06/28 05:42:13;;;;;;;6.12;4.83;;;;;;;28.74;43.65;99127.77;1652831;84;21069;-65
2021/06/28 05:44:39;;;;;;;5.62;4.47;;;;;;;28.75;43.72;99119.23;1645409;86;21003;-65
2021/06/28 05:47:07;;;;;;;7.10;5.00;;;;;;;28.71;43.44;99114.77;1681026;84;21560;-66
2021/06/28 05:49:37;;;;;;;5.03;4.62;;;;;;;28.64;43.72;99131.75;1684432;84;21969;-65
2021/06/28 05:52:05;;;;;;;11.20;5.08;;;;;;;28.64;43.78;99130.41;1683038;84;21549;-66
2021/06/28 05:54:31;;;;;;;5.10;4.60;;;;;;;28.70;44.22;99132.34;1684563;83;21112;-66
2021/06/28 05:56:58;;;;;;;8.28;4.67;;;;;;;28.76;44.29;99125.74;1676435;83;21077;-65
2021/06/28 05:59:25;;;;;;;7.97;4.17;;;;;;;28.82;43.92;99128.19;1689758;83;21016;-66
2021/06/28 06:01:51;;;;;;;4.55;4.25;;;;;;;28.75;43.73;99129.94;1682243;83;21403;-65
2021/06/28 06:04:18;;;;;;;6.95;4.70;;;;;;;28.67;43.56;99122.84;1677120;84;21065;-66
2021/06/28 06:06:45;;;;;;;7.45;4.50;;;;;;;28.58;44.11;99125.29;1681236;84;21001;-66
2021/06/28 06:09:11;;;;;;;4.65;4.20;;;;;;;28.49;43.77;99129.61;1692187;83;21449;-66
2021/06/28 06:11:39;;;;;;;5.60;4.90;;;;;;;28.29;43.89;99121.33;1685481;84;21088;-66
2021/06/28 06:14:06;;;;;;;10.53;4.12;;;;;;;28.08;44.68;99127.38;1686693;84;21158;-65
2021/06/28 06:16:32;;;;;;;9.73;4.37;;;;;;;27.97;44.52;99133.19;1691665;84;21045;-66
2021/06/28 06:19:00;;;;;;;4.00;3.70;;;;;;;27.83;44.57;99128.12;1689191;84;20962;-66
2021/06/28 06:21:27;;;;;;;7.37;4.15;;;;;;;27.73;43.72;99124.91;1687318;83;21018;-66
2021/06/28 06:23:53;;;;;;;5.08;3.72;;;;;;;27.67;44.04;99123.77;1648218;86;21510;-66
2021/06/28 06:26:20;;;;;;;4.28;3.58;;;;;;;27.55;43.34;99129.20;1639109;85;21223;-66
2021/06/28 06:28:47;;;;;;;5.50;3.90;;;;;;;27.33;43.01;99140.73;1644134;86;21031;-66
2021/06/28 06:31:13;;;;;;;3.65;3.30;;;;;;;27.03;43.88;99138.43;1685347;83;21002;-66
2021/06/28 06:33:40;;;;;;;3.67;3.37;;;;;;;26.79;44.83;99138.03;1682685;84;21073;-65
2021/06/28 06:36:07;;;;;;;12.85;4.75;;;;;;;26.75;44.49;99139.41;1644056;86;21144;-65
2021/06/28 06:38:33;;;;;;;8.23;4.05;;;;;;;26.61;43.86;99142.80;1633377;86;21178;-65
2021/06/28 06:41:00;;;;;;;5.65;3.25;;;;;;;26.49;43.87;99142.86;1683648;83;21006;-65
2021/06/28 06:43:27;;;;;;;4.40;3.55;;;;;;;26.33;44.66;99138.42;1685244;84;20954;-65
2021/06/28 06:45:53;;;;;;;7.40;3.17;;;;;;;26.19;44.64;99147.91;1686639;84;21093;-65
2021/06/28 06:48:19;;;;;;;5.42;3.37;;;;;;;26.00;45.43;99144.30;1684890;83;21001;-66
2021/06/28 06:50:47;;;;;;;9.18;4.15;;;;;;;25.89;45.73;99140.16;1633286;86;21173;-66
2021/06/28 06:53:13;;;;;;;4.15;3.50;;;;;;;25.80;45.90;99142.49;1687739;84;21433;-66
2021/06/28 06:55:40;;;;;;;6.75;3.42;;;;;;;25.71;45.74;99144.85;1686481;83;21018;-66
2021/06/28 06:58:10;;;;;;;3.12;2.87;;;;;;;25.59;45.28;99150.13;1633893;86;21010;-65
2021/06/28 07:00:40;;;;;;;3.58;3.15;;;;;;;25.36;45.26;99146.83;1683411;83;20958;-66
2021/06/28 07:03:07;;;;;;;3.27;3.05;;;;;;;25.17;45.92;99147.14;1685728;84;21146;-66
2021/06/28 07:05:33;;;;;;;4.03;2.70;;;;;;;25.03;46.05;99153.91;1639038;86;20950;-66
2021/06/28 07:08:00;;;;;;;4.87;3.80;;;;;;;24.92;46.89;99155.53;1686154;84;20965;-66
2021/06/28 07:10:26;;;;;;;6.90;3.27;;;;;;;24.81;47.39;99152.33;1646877;86;21439;-66
2021/06/28 07:12:53;;;;;;;5.72;3.27;;;;;;;24.74;47.39;99141.52;1686093;83;21000;-66
2021/06/28 07:15:20;;;;;;;5.95;3.02;;;;;;;24.72;47.43;99149.66;1685027;83;21217;-66
2021/06/28 07:17:48;;;;;;;3.60;3.20;;;;;;;24.73;48.42;99147.83;1683933;83;21575;-66
2021/06/28 07:20:22;;;;;;;4.12;2.55;;;;;;;24.76;47.83;99156.82;1692617;83;21018;-66
2021/06/28 07:22:51;;;;;;;4.37;3.60;;;;;;;24.78;47.46;99159.33;1687914;83;20970;-66
2021/06/28 07:25:17;;;;;;;4.62;2.87;;;;;;;24.78;47.05;99152.14;1684176;84;20942;-65
2021/06/28 07:27:44;;;;;;;6.75;2.90;;;;;;;24.82;46.20;99154.83;1680755;84;21102;-66
2021/06/28 07:30:12;;;;;;;2.77;2.30;;;;;;;24.85;46.37;99159.83;1703009;83;21536;-66
2021/06/28 07:32:39;;;;;;;3.15;2.90;;;;;;;24.85;45.99;99165.64;1681008;84;21062;-66
2021/06/28 07:35:07;;;;;;;3.47;2.72;;;;;;;24.84;45.68;99158.16;1682964;84;21128;-65
2021/06/28 07:37:33;;;;;;;3.98;2.52;;;;;;;24.85;45.92;99160.32;1683782;83;21073;-65
2021/06/28 07:40:00;;;;;;;5.45;2.80;;;;;;;24.86;44.91;99157.50;1686403;84;21145;-67
2021/06/28 07:42:26;;;;;;;2.87;2.37;;;;;;;24.89;45.61;99168.32;1682165;83;21021;-66
2021/06/28 07:44:53;;;;;;;2.75;2.22;;;;;;;24.97;46.11;99165.23;1686064;84;21061;-66
2021/06/28 07:47:20;;;;;;;3.02;2.67;;;;;;;25.06;44.67;99163.41;1643840;86;21136;-66
2021/06/28 07:49:46;;;;;;;5.45;2.98;;;;;;;25.07;44.61;99153.09;1688114;83;21388;-66
2021/06/28 07:52:12;;;;;;;8.03;2.60;;;;;;;25.10;45.07;99164.75;1691360;83;21106;-66
2021/06/28 07:54:42;;;;;;;3.17;2.80;;;;;;;25.21;45.37;99166.25;1686253;84;21546;-66
2021/06/28 07:57:08;;;;;;;4.37;2.50;;;;;;;25.23;44.13;99169.09;1686269;84;21477;-66
2021/06/28 07:59:34;;;;;;;4.60;2.70;;;;;;;25.06;43.85;99166.06;1685174;84;21079;-66
2021/06/28 08:02:01;;;;;;;4.53;2.30;;;;;;;25.00;44.72;99168.88;1686018;84;21037;-66
2021/06/28 08:04:27;;;;;;;2.62;2.42;;;;;;;25.14;43.95;99170.09;1687285;84;22041;-67
2021/06/28 08:06:56;;;;;;;2.72;2.50;;;;;;;25.30;45.24;99174.09;1686176;83;20962;-66
2021/06/28 08:09:23;;;;;;;2.87;2.58;;;;;;;25.49;43.63;99171.62;1632774;86;21072;-66
2021/06/28 08:11:49;;;;;;;2.70;2.50;;;;;;;25.58;43.84;99175.93;1684136;83;21501;-66
2021/06/28 08:14:17;;;;;;;2.42;2.22;;;;;;;25.65;43.02;99177.47;1687486;84;21057;-66
2021/06/28 08:16:44;;;;;;;2.70;2.45;;;;;;;25.68;42.85;99171.81;1690159;84;21841;-67
2021/06/28 08:19:13;;;;;;;2.75;2.55;;;;;;;25.73;42.82;99170.83;1678267;84;20967;-66
2021/06/28 08:21:40;;;;;;;3.42;2.30;;;;;;;25.77;43.03;99169.99;1686837;83;21426;-67
2021/06/28 08:24:09;;;;;;;4.87;2.62;;;;;;;25.78;43.08;99173.80;1686267;84;21018;-67
2021/06/28 08:26:37;;;;;;;3.30;2.85;;;;;;;25.83;42.30;99186.62;1641330;86;21141;-66
2021/06/28 08:29:05;;;;;;;3.17;2.87;;;;;;;25.86;43.23;99175.63;1686424;82;21770;-66
2021/06/28 08:31:32;;;;;;;4.53;2.72;;;;;;;25.87;42.74;99172.80;1680304;83;20998;-66
2021/06/28 08:33:59;;;;;;;4.83;2.70;;;;;;;25.84;43.86;99180.30;1718638;83;21006;-66
2021/06/28 08:36:25;;;;;;;4.20;2.60;;;;;;;25.81;43.63;99177.95;1681536;84;21450;-65
2021/06/28 08:38:52;;;;;;;3.17;2.80;;;;;;;25.79;43.00;99178.13;1677820;84;20953;-66
2021/06/28 08:41:18;;;;;;;7.50;3.25;;;;;;;25.74;42.97;99183.98;1688968;83;21111;-66
2021/06/28 08:43:47;;;;;;;2.92;2.60;;;;;;;25.67;42.56;99183.47;1686954;83;21005;-65
2021/06/28 08:46:14;;;;;;;7.50;3.10;;;;;;;25.58;42.40;99184.45;1678671;84;21036;-66
2021/06/28 08:48:44;;;;;;;6.30;2.75;;;;;;;25.46;43.30;99182.59;1685258;83;21196;-66
2021/06/28 08:51:12;;;;;;;3.30;2.80;;;;;;;25.46;43.66;99184.42;1689884;83;20985;-66
2021/06/28 08:53:39;;;;;;;4.62;2.80;;;;;;;25.49;42.47;99190.25;1696122;82;21138;-66
2021/06/28 08:56:09;;;;;;;3.70;3.00;;;;;;;25.51;42.26;99190.09;1681946;84;20998;-66
2021/06/28 08:58:39;;;;;;;3.30;3.00;;;;;;;25.48;42.88;99188.59;1682291;84;20970;-67
2021/06/28 09:01:07;;;;;;;4.55;3.08;;;;;;;25.48;44.06;99188.59;1682152;83;20990;-66
2021/06/28 09:03:34;;;;;;;4.08;3.10;;;;;;;25.59;42.59;99200.73;1686467;84;21089;-66
2021/06/28 09:06:14;;;;;;;3.83;2.87;;;;;;;25.64;41.59;99201.11;1686829;83;21142;-66
2021/06/28 09:08:55;;;;;;;2.92;2.60;;;;;;;25.67;41.68;99201.61;1686082;84;21118;-66
2021/06/28 09:11:21;;;;;;;3.75;2.75;;;;;;;25.67;40.94;99204.28;1684016;84;21462;-65
2021/06/28 09:13:49;;;;;;;5.25;2.92;;;;;;;25.67;41.83;99197.62;1644442;86;21085;-67
2021/06/28 09:16:28;;;;;;;5.25;3.20;;;;;;;25.69;42.82;99202.28;1686696;84;21108;-66
2021/06/28 09:19:02;;;;;;;3.47;2.70;;;;;;;25.76;41.02;99205.63;1683271;83;21121;-66
2021/06/28 09:21:40;;;;;;;2.47;2.22;;;;;;;25.83;40.89;99197.27;1684726;83;21481;-66
2021/06/28 09:24:31;;;;;;;4.25;3.50;;;;;;;25.85;41.85;99208.10;1689496;84;20961;-67
2021/06/28 09:27:11;;;;;;;3.35;3.05;;;;;;;25.90;40.94;99204.44;1678399;83;20994;-65
2021/06/28 09:29:42;;;;;;;3.02;2.50;;;;;;;25.93;41.10;99204.11;1686451;83;20945;-66
2021/06/28 09:32:13;;;;;;;4.72;2.60;;;;;;;25.97;40.05;99200.62;1681100;84;21137;-66
2021/06/28 09:34:41;;;;;;;3.40;2.60;;;;;;;26.02;40.41;99203.59;1688741;83;21466;-66
2021/06/28 09:37:17;;;;;;;3.15;2.60;;;;;;;26.08;40.57;99200.26;1686096;83;21061;-65
2021/06/28 09:39:47;;;;;;;3.65;2.65;;;;;;;26.17;40.91;99202.42;1677653;84;21065;-65
2021/06/28 09:42:19;;;;;;;2.58;2.40;;;;;;;26.25;40.91;99197.05;1682606;83;21514;-66
2021/06/28 09:45:10;;;;;;;3.45;2.72;;;;;;;26.36;40.37;99202.08;1684501;84;21137;-66
2021/06/28 09:47:36;;;;;;;4.28;2.58;;;;;;;26.45;40.02;99202.37;1668141;83;21000;-66
2021/06/28 09:50:13;;;;;;;5.25;2.67;;;;;;;26.46;39.66;99197.87;1687246;83;21060;-65
2021/06/28 09:52:43;;;;;;;5.15;2.55;;;;;;;26.47;40.23;99192.36;1699869;83;21018;-66
2021/06/28 09:55:21;;;;;;;4.25;2.12;;;;;;;26.55;39.74;99211.02;1718907;83;20958;-65
2021/06/28 09:58:09;;;;;;;2.40;2.17;;;;;;;26.42;38.95;99202.20;1692680;83;21142;-66
2021/06/28 10:00:45;;;;;;;3.70;2.58;;;;;;;26.28;39.37;99199.39;1684402;84;21535;-65
2021/06/28 10:03:42;;;;;;;2.35;2.15;;;;;;;26.23;38.75;99192.39;1682281;83;21017;-66
2021/06/28 10:06:16;;;;;;;3.12;2.67;;;;;;;26.19;38.98;99191.89;1681290;83;21617;-65
2021/06/28 10:08:46;;;;;;;4.60;3.10;;;;;;;26.18;38.55;99196.09;1684573;83;21096;-66
2021/06/28 10:11:23;;;;;;;3.30;2.20;;;;;;;26.21;39.51;99187.23;1690207;83;21323;-65
2021/06/28 10:13:57;;;;;;;3.60;2.65;;;;;;;26.31;39.99;99199.08;1689956;83;21032;-66
2021/06/28 10:16:26;;;;;;;4.00;2.62;;;;;;;26.34;40.09;99189.41;1689748;83;21073;-66
2021/06/28 10:18:55;;;;;;;7.05;2.90;;;;;;;26.30;38.04;99195.58;1701653;83;21576;-66
2021/06/28 10:21:22;;;;;;;4.95;2.98;;;;;;;26.13;39.45;99199.76;1681794;84;21081;-66
2021/06/28 10:23:48;;;;;;;2.67;2.47;;;;;;;26.07;40.49;99190.09;1689787;83;21153;-66
2021/06/28 10:26:15;;;;;;;3.27;2.02;;;;;;;26.19;40.10;99195.89;1688566;84;21307;-66
2021/06/28 10:28:41;;;;;;;2.83;2.30;;;;;;;26.29;38.18;99197.05;1690739;83;21065;-65
2021/06/28 10:31:11;;;;;;;2.35;1.98;;;;;;;26.36;37.98;99199.41;1681531;84;21013;-67
2021/06/28 10:33:38;;;;;;;2.33;2.10;;;;;;;26.47;38.63;99195.53;1683251;83;21069;-66
2021/06/28 10:36:13;;;;;;;2.98;2.40;;;;;;;26.58;39.49;99196.52;1678847;84;21161;-66
2021/06/28 10:38:54;;;;;;;2.10;2.00;;;;;;;26.72;39.65;99194.45;1686866;83;20946;-67
2021/06/28 10:41:42;;;;;;;3.37;2.40;;;;;;;26.88;39.99;99200.20;1688695;82;21013;-66
2021/06/28 10:44:14;;;;;;;2.42;2.05;;;;;;;27.09;39.68;99211.14;1682521;83;20959;-66
2021/06/28 10:46:46;;;;;;;4.42;2.50;;;;;;;27.17;37.74;99208.44;1686230;83;20957;-65
2021/06/28 10:49:14;;;;;;;2.90;2.22;;;;;;;27.02;37.96;99208.83;1692275;83;21170;-65
2021/06/28 10:51:50;;;;;;;2.30;2.10;;;;;;;26.93;38.23;99212.03;1690071;83;21682;-66
2021/06/28 10:54:34;;;;;;;2.60;2.15;;;;;;;26.94;37.39;99208.86;1689180;83;21662;-66
2021/06/28 10:57:01;;;;;;;3.70;2.27;;;;;;;26.91;37.08;99204.70;1687144;83;21112;-66
2021/06/28 10:59:42;;;;;;;2.42;2.20;;;;;;;26.99;38.13;99202.50;1678740;84;21083;-66
2021/06/28 11:02:13;;;;;;;2.25;1.70;;;;;;;27.15;38.12;99210.45;1681114;83;21956;-65
2021/06/28 11:04:55;;;;;;;2.52;2.05;;;;;;;27.29;37.38;99201.67;1690136;83;21092;-66
2021/06/28 11:07:22;;;;;;;2.42;2.00;;;;;;;27.34;37.13;99202.48;1681215;83;21069;-66
2021/06/28 11:09:55;;;;;;;5.78;2.70;;;;;;;27.41;37.58;99202.08;1693961;83;21036;-65
2021/06/28 11:12:33;;;;;;;6.85;2.77;;;;;;;27.40;37.56;99213.27;1686389;83;21074;-67
2021/06/28 11:15:09;;;;;;;2.90;2.17;;;;;;;27.29;38.07;99200.84;1681605;83;22011;-66
2021/06/28 11:17:47;;;;;;;4.47;2.83;;;;;;;27.23;36.94;99202.88;1683769;83;21019;-66
2021/06/28 11:20:38;;;;;;;3.22;2.10;;;;;;;27.27;37.31;99206.36;1681431;83;21000;-66
2021/06/28 11:23:18;;;;;;;2.22;2.05;;;;;;;27.34;37.01;99207.83;1688041;84;21077;-66
2021/06/28 11:25:52;;;;;;;2.25;2.15;;;;;;;27.47;37.06;99200.55;1690617;83;21009;-66
2021/06/28 11:28:21;;;;;;;;;;;;;;;27.57;36.86;99203.36;1689772;84;21078;-66
2021/06/28 11:31:00;;;;;;;3.87;1.85;;;;;;;27.59;36.06;99201.31;1685410;84;20162;-66
2021/06/28 11:33:49;;;;;;;2.47;2.27;;;;;;;27.54;36.27;99201.52;1681853;83;21082;-67
2021/06/28 11:36:30;;;;;;;11.03;2.42;;;;;;;27.53;35.32;99205.19;1682391;83;21017;-66
2021/06/28 11:39:04;;;;;;;2.50;2.30;;;;;;;27.52;35.40;99200.36;1678458;84;21070;-66
2021/06/28 11:41:31;;;;;;;2.10;2.00;;;;;;;27.51;36.22;99194.69;1684917;83;21153;-66